TAF MGGT
METAR MGGT
MGGT 080300Z 36012KT 9999 FEW015 19/15 Q1023 A3021=
MGGT 080200Z 36014KT CAVOK 19/15 Q1022 A3018=
MGGT 080100Z 36016KT 9999 FEW016 20/14 Q1021 A3015=
MGGT 080000Z 03016KT 9999 SCT018 21/15 Q1020 A3012 FEW200=
MGGT 072300Z 03014KT 9999 SCT020 23/15 Q1020 A3012=
WC MGGT
WS MGGT
WV MGGT